Time;durP1;ratioP1;P1;durP2;ratioP2;P2;SDS_P1;SDS_P2;PMS_P1;PMS_P2;Temp;Humidity;BMP_temperature;BMP_pressure;BME280_temperature;BME280_humidity;BME280_pressure;Samples;Min_cycle;Max_cycle;Signal;HPM_P1;HPM_P2
2023/05/01 00:01:46;;;;;;;;;;;;;;;10.05;75.53;100799.88;5032119;28;19932;-69
2023/05/01 00:04:49;;;;;;;;;;;;;;;10.02;75.31;100800.91;5031620;28;19924;-69
2023/05/01 00:07:52;;;;;;;;;;;;;;;9.98;75.79;100797.53;5031720;28;19924;-69
2023/05/01 00:10:55;;;;;;;;;;;;;;;9.99;75.97;100794.03;5031835;28;19962;-69
2023/05/01 00:13:58;;;;;;;;;;;;;;;9.97;76.15;100789.78;5020147;28;19924;-69
2023/05/01 00:17:01;;;;;;;;;;;;;;;9.94;76.01;100782.94;5032331;28;20337;-69
2023/05/01 00:20:04;;;;;;;;;;;;;;;9.88;76.42;100788.44;5032048;28;20012;-69
2023/05/01 00:23:07;;;;;;;;;;;;;;;9.84;76.12;100781.66;5031307;28;19928;-70
2023/05/01 00:26:10;;;;;;;;;;;;;;;9.81;76.25;100781.81;5030832;28;20436;-69
2023/05/01 00:29:16;;;;;;;;;;;;;;;9.78;76.15;100776.72;5031377;28;19943;-69
2023/05/01 00:32:18;;;;;;;;;;;;;;;9.71;76.61;100772.69;5031896;28;19962;-69
2023/05/01 00:35:22;;;;;;;;;;;;;;;9.67;77.43;100773.75;5031549;28;19942;-69
2023/05/01 00:38:25;;;;;;;;;;;;;;;9.65;77.16;100775.56;5017752;28;19940;-69
2023/05/01 00:41:28;;;;;;;;;;;;;;;9.65;76.79;100760.75;5018915;28;19950;-69
2023/05/01 00:44:30;;;;;;;;;;;;;;;9.60;76.98;100762.72;5018292;28;19999;-69
2023/05/01 00:47:37;;;;;;;;;;;;;;;9.52;77.49;100760.44;5019312;28;19928;-69
2023/05/01 00:50:40;;;;;;;;;;;;;;;9.54;77.47;100753.41;5029796;28;20320;-69
2023/05/01 00:53:43;;;;;;;;;;;;;;;9.52;77.69;100744.78;5029848;28;19924;-69
2023/05/01 00:56:46;;;;;;;;;;;;;;;9.51;77.63;100743.09;5029904;28;20466;-70
2023/05/01 00:59:50;;;;;;;;;;;;;;;9.51;77.06;100743.09;5030576;28;19936;-69
2023/05/01 01:02:53;;;;;;;;;;;;;;;9.48;77.32;100738.00;5018424;28;20013;-70
2023/05/01 01:06:03;;;;;;;;;;;;;;;9.45;77.57;100740.75;5030736;28;19972;-70
2023/05/01 01:09:24;;;;;;;;;;;;;;;9.42;77.72;100730.44;5018007;28;19924;-70
2023/05/01 01:12:38;;;;;;;;;;;;;;;9.39;77.63;100733.19;5030682;28;20300;-69
2023/05/01 01:16:04;;;;;;;;;;;;;;;9.37;77.86;100723.75;5019114;28;20399;-69
2023/05/01 01:19:32;;;;;;;;;;;;;;;9.34;78.53;100729.09;5030525;28;19970;-69
2023/05/01 01:22:37;;;;;;;;;;;;;;;9.37;78.38;100719.34;5029432;28;20339;-70
2023/05/01 01:25:40;;;;;;;;;;;;;;;9.37;78.07;100726.34;5017349;28;20301;-70
2023/05/01 01:28:43;;;;;;;;;;;;;;;9.34;78.13;100724.72;5030636;28;20293;-69
2023/05/01 01:32:15;;;;;;;;;;;;;;;9.28;78.36;100714.53;5030269;28;20429;-70
2023/05/01 01:35:19;;;;;;;;;;;;;;;9.29;78.46;100711.88;5017936;28;20017;-69
2023/05/01 01:38:28;;;;;;;;;;;;;;;9.26;78.20;100711.16;5017885;28;19928;-70
2023/05/01 01:41:32;;;;;;;;;;;;;;;9.18;78.48;100708.03;5017920;28;19959;-70
2023/05/01 01:44:42;;;;;;;;;;;;;;;9.16;78.77;100708.13;5030864;28;20277;-70
2023/05/01 01:47:45;;;;;;;;;;;;;;;9.13;78.63;100707.41;5018306;28;19968;-70
2023/05/01 01:50:49;;;;;;;;;;;;;;;9.08;78.94;100703.22;5029775;28;20014;-69
2023/05/01 01:53:56;;;;;;;;;;;;;;;9.11;79.08;100701.41;5029892;28;19970;-69
2023/05/01 01:57:01;;;;;;;;;;;;;;;9.08;79.25;100703.22;5018077;28;20067;-69
2023/05/01 02:00:07;;;;;;;;;;;;;;;9.08;79.18;100698.00;5018354;28;19928;-69
2023/05/01 02:03:16;;;;;;;;;;;;;;;9.10;78.83;100695.34;5029651;28;19928;-69
2023/05/01 02:06:21;;;;;;;;;;;;;;;9.08;78.73;100695.38;5027876;28;20024;-70
2023/05/01 02:09:25;;;;;;;;;;;;;;;9.05;78.65;100692.91;5028173;28;19930;-69
2023/05/01 02:12:29;;;;;;;;;;;;;;;9.00;79.07;100689.66;5017888;28;19924;-69
2023/05/01 02:15:33;;;;;;;;;;;;;;;9.01;79.21;100687.91;5018208;28;19966;-69
2023/05/01 02:18:37;;;;;;;;;;;;;;;9.06;79.36;100689.41;5029331;28;19923;-69
2023/05/01 02:21:41;;;;;;;;;;;;;;;9.05;78.95;100692.06;5017215;28;19992;-69
2023/05/01 02:24:45;;;;;;;;;;;;;;;9.06;79.53;100689.41;5017149;28;19963;-69
2023/05/01 02:27:51;;;;;;;;;;;;;;;9.01;79.99;100686.13;5017209;28;19928;-69
2023/05/01 02:30:53;;;;;;;;;;;;;;;9.08;80.00;100677.13;5017581;28;20430;-70
2023/05/01 02:33:56;;;;;;;;;;;;;;;9.12;79.86;100682.22;5029702;28;20465;-70
2023/05/01 02:36:59;;;;;;;;;;;;;;;9.11;79.84;100675.31;5029259;28;20331;-69
2023/05/01 02:40:03;;;;;;;;;;;;;;;9.11;79.95;100675.31;5029307;28;19923;-69
2023/05/01 02:43:09;;;;;;;;;;;;;;;9.14;79.98;100672.56;5030338;28;20053;-69
2023/05/01 02:46:15;;;;;;;;;;;;;;;9.13;79.86;100670.88;5017228;28;19924;-69
2023/05/01 02:49:20;;;;;;;;;;;;;;;9.14;79.96;100669.97;5017329;28;19925;-69
2023/05/01 02:52:23;;;;;;;;;;;;;;;9.15;80.15;100671.66;5016173;28;19969;-69
2023/05/01 02:55:35;;;;;;;;;;;;;;;9.16;80.25;100668.16;5016759;28;20452;-69
2023/05/01 02:58:38;;;;;;;;;;;;;;;9.13;81.08;100669.13;5016894;28;19963;-70
2023/05/01 03:01:41;;;;;;;;;;;;;;;9.20;80.47;100674.91;5032043;28;19973;-69
2023/05/01 03:04:44;;;;;;;;;;;;;;;9.22;80.27;100663.50;5032872;28;20008;-69
2023/05/01 03:07:47;;;;;;;;;;;;;;;9.22;79.91;100665.22;5020412;28;19942;-70
2023/05/01 03:10:50;;;;;;;;;;;;;;;9.21;80.04;100658.34;5020155;28;19923;-70
2023/05/01 03:13:53;;;;;;;;;;;;;;;9.21;80.17;100663.56;5020867;28;19924;-69
2023/05/01 03:16:57;;;;;;;;;;;;;;;9.20;80.62;100654.03;5033200;28;19924;-69
2023/05/01 03:20:00;;;;;;;;;;;;;;;9.19;80.77;100650.59;5020423;28;20324;-70
2023/05/01 03:23:03;;;;;;;;;;;;;;;9.21;80.84;100650.50;5032326;28;20350;-69
2023/05/01 03:26:06;;;;;;;;;;;;;;;9.20;80.91;100643.59;5020289;28;19940;-69
2023/05/01 03:29:12;;;;;;;;;;;;;;;9.20;81.05;100639.22;5019513;28;19924;-69
2023/05/01 03:32:16;;;;;;;;;;;;;;;9.16;81.11;100642.91;5019294;28;19960;-69
2023/05/01 03:35:20;;;;;;;;;;;;;;;9.21;81.01;100640.91;5019899;28;20307;-70
2023/05/01 03:38:25;;;;;;;;;;;;;;;9.22;81.02;100633.94;5020010;28;19940;-70
2023/05/01 03:42:04;;;;;;;;;;;;;;;9.21;80.73;100624.41;4918428;28;19963;-71
2023/05/01 03:45:12;;;;;;;;;;;;;;;9.22;81.05;100628.72;5032724;28;19924;-69
2023/05/01 03:48:16;;;;;;;;;;;;;;;9.23;81.19;100627.81;5032622;28;19924;-70
2023/05/01 03:51:19;;;;;;;;;;;;;;;9.25;80.95;100628.56;5019416;28;19924;-70
2023/05/01 03:54:22;;;;;;;;;;;;;;;9.28;80.98;100620.59;5019610;28;20416;-70
2023/05/01 03:57:35;;;;;;;;;;;;;;;9.26;81.04;100623.31;5031577;28;20449;-70
2023/05/01 04:00:38;;;;;;;;;;;;;;;9.27;81.08;100624.16;5018968;28;19985;-69
2023/05/01 04:03:42;;;;;;;;;;;;;;;9.25;80.88;100620.75;5019903;28;19944;-69
2023/05/01 04:06:46;;;;;;;;;;;;;;;9.24;81.43;100616.44;5020078;28;19996;-69
2023/05/01 04:09:49;;;;;;;;;;;;;;;9.25;81.55;100629.44;5020320;28;20008;-70
2023/05/01 04:12:53;;;;;;;;;;;;;;;9.25;81.47;100620.75;5017698;28;19962;-69
2023/05/01 04:15:58;;;;;;;;;;;;;;;9.24;81.61;100629.50;5031490;28;19943;-70
2023/05/01 04:19:02;;;;;;;;;;;;;;;9.23;81.77;100614.78;5019053;28;19924;-70
2023/05/01 04:22:06;;;;;;;;;;;;;;;9.21;82.11;100621.81;5008731;28;19924;-70
2023/05/01 04:25:11;;;;;;;;;;;;;;;9.22;82.17;100620.88;5019726;28;19959;-70
2023/05/01 04:28:15;;;;;;;;;;;;;;;9.26;82.34;100622.47;5019441;28;19963;-70
2023/05/01 04:31:18;;;;;;;;;;;;;;;9.29;82.01;100617.94;5019101;28;20292;-69
2023/05/01 04:34:22;;;;;;;;;;;;;;;9.29;82.01;100617.09;5018722;28;19969;-69
2023/05/01 04:37:25;;;;;;;;;;;;;;;9.33;82.28;100613.44;5030385;28;20368;-70
2023/05/01 04:40:28;;;;;;;;;;;;;;;9.32;82.22;100612.59;5018192;28;19977;-69
2023/05/01 04:43:32;;;;;;;;;;;;;;;9.36;81.94;100617.66;5018648;28;19978;-70
2023/05/01 04:46:35;;;;;;;;;;;;;;;9.37;82.07;100612.38;5018879;28;20358;-70
2023/05/01 04:49:38;;;;;;;;;;;;;;;9.38;82.13;100624.53;5018710;28;20308;-70
2023/05/01 04:52:42;;;;;;;;;;;;;;;9.38;82.06;100611.47;5018700;28;19928;-70
2023/05/01 04:55:45;;;;;;;;;;;;;;;9.39;82.10;100614.91;5018313;28;20311;-70
2023/05/01 04:58:51;;;;;;;;;;;;;;;9.41;82.17;100606.09;5018660;28;19951;-69
2023/05/01 05:01:58;;;;;;;;;;;;;;;9.46;82.40;100608.50;5019234;28;19929;-70
2023/05/01 05:05:01;;;;;;;;;;;;;;;9.49;82.28;100608.34;5031317;28;19974;-70
2023/05/01 05:08:05;;;;;;;;;;;;;;;9.49;82.19;100606.59;5018164;28;19923;-69
2023/05/01 05:11:13;;;;;;;;;;;;;;;9.53;82.59;100605.50;5030573;28;20297;-70
2023/05/01 05:14:33;;;;;;;;;;;;;;;9.60;82.17;100606.06;5049657;28;19942;-70
2023/05/01 05:17:36;;;;;;;;;;;;;;;9.65;82.19;100605.88;5101891;28;19923;-70
2023/05/01 05:20:40;;;;;;;;;;;;;;;9.68;82.36;100609.19;5102445;28;19922;-69
2023/05/01 05:23:44;;;;;;;;;;;;;;;9.73;82.34;100617.66;5090166;28;19961;-70
2023/05/01 05:26:49;;;;;;;;;;;;;;;9.74;82.21;100608.06;5101936;28;20041;-69
2023/05/01 05:29:54;;;;;;;;;;;;;;;9.82;81.95;100605.91;5114387;28;19938;-70
2023/05/01 05:32:57;;;;;;;;;;;;;;;9.87;81.96;100600.47;5114422;28;19961;-70
2023/05/01 05:36:01;;;;;;;;;;;;;;;9.96;82.47;100603.50;5100988;28;19976;-69
2023/05/01 05:39:12;;;;;;;;;;;;;;;10.03;82.52;100601.44;5101142;28;19968;-70
2023/05/01 05:42:15;;;;;;;;;;;;;;;10.09;82.25;100600.28;5100186;28;20010;-69
2023/05/01 05:45:19;;;;;;;;;;;;;;;10.11;82.59;100601.88;5101350;28;19922;-69
2023/05/01 05:48:22;;;;;;;;;;;;;;;10.19;82.37;100599.75;5100512;28;19941;-69
2023/05/01 05:51:25;;;;;;;;;;;;;;;10.27;82.32;100599.38;5100720;28;20247;-69
2023/05/01 05:54:29;;;;;;;;;;;;;;;10.30;82.15;100591.41;5100543;28;19923;-70
2023/05/01 05:57:36;;;;;;;;;;;;;;;10.33;81.91;100588.63;5101041;28;19964;-70
2023/05/01 06:00:40;;;;;;;;;;;;;;;10.36;81.54;100591.09;5101380;28;20306;-70
2023/05/01 06:03:44;;;;;;;;;;;;;;;10.41;81.91;100593.50;5100579;28;19965;-70
2023/05/01 06:06:49;;;;;;;;;;;;;;;10.44;82.06;100596.78;5099763;28;21565;-70
2023/05/01 06:09:52;;;;;;;;;;;;;;;10.50;81.97;100597.38;5113331;28;19976;-70
2023/05/01 06:12:55;;;;;;;;;;;;;;;10.55;81.79;100591.00;5101060;28;19923;-70
2023/05/01 06:15:59;;;;;;;;;;;;;;;10.58;81.96;100592.63;5101106;28;19926;-70
2023/05/01 06:19:02;;;;;;;;;;;;;;;10.66;81.73;100585.25;5100022;28;19997;-70
2023/05/01 06:22:06;;;;;;;;;;;;;;;10.73;80.64;100588.38;5100220;28;20027;-70
2023/05/01 06:25:14;;;;;;;;;;;;;;;10.81;80.97;100589.66;5100292;28;19968;-70
2023/05/01 06:28:17;;;;;;;;;;;;;;;10.90;80.72;100578.72;5100877;28;20295;-71
2023/05/01 06:31:20;;;;;;;;;;;;;;;10.98;78.70;100583.56;5113276;28;19969;-70
2023/05/01 06:34:27;;;;;;;;;;;;;;;11.04;75.90;100587.59;5100044;28;20346;-70
2023/05/01 06:37:31;;;;;;;;;;;;;;;11.13;75.63;100585.34;5099858;28;19927;-70
2023/05/01 06:40:34;;;;;;;;;;;;;;;11.24;73.85;100583.94;5099542;28;20329;-70
2023/05/01 06:43:37;;;;;;;;;;;;;;;11.32;72.04;100582.56;5099360;28;20097;-70
2023/05/01 06:46:41;;;;;;;;;;;;;;;11.37;70.97;100585.78;5112461;28;20359;-70
2023/05/01 06:49:44;;;;;;;;;;;;;;;11.46;70.04;100578.38;5098882;28;19999;-71
2023/05/01 06:52:48;;;;;;;;;;;;;;;11.50;68.93;100575.50;5099399;28;19938;-71
2023/05/01 06:55:51;;;;;;;;;;;;;;;11.58;68.69;100573.31;5099146;28;19927;-69
2023/05/01 06:58:54;;;;;;;;;;;;;;;11.67;68.62;100561.44;5106644;28;19980;-69
2023/05/01 07:01:58;;;;;;;;;;;;;;;11.73;67.86;100560.25;5120963;28;20008;-69
2023/05/01 07:05:01;;;;;;;;;;;;;;;11.76;67.26;100558.31;5132750;28;19970;-69
2023/05/01 07:08:05;;;;;;;;;;;;;;;11.88;67.57;100556.81;5132499;28;19978;-69
2023/05/01 07:11:08;;;;;;;;;;;;;;;11.99;66.40;100562.25;5133022;28;19922;-68
2023/05/01 07:14:12;;;;;;;;;;;;;;;12.10;67.40;100553.81;5133320;28;19922;-69
2023/05/01 07:17:15;;;;;;;;;;;;;;;12.17;65.66;100549.88;5132425;28;19960;-69
2023/05/01 07:20:17;;;;;;;;;;;;;;;12.20;64.60;100554.94;5132920;28;19936;-69
2023/05/01 07:23:22;;;;;;;;;;;;;;;12.23;65.22;100554.78;5107918;28;19927;-69
2023/05/01 07:26:25;;;;;;;;;;;;;;;12.30;64.94;100553.47;5132271;28;19922;-69
2023/05/01 07:29:28;;;;;;;;;;;;;;;12.38;64.02;100541.69;5133240;28;19943;-69
2023/05/01 07:32:31;;;;;;;;;;;;;;;12.53;63.92;100549.47;5132449;28;19926;-69
2023/05/01 07:35:35;;;;;;;;;;;;;;;12.64;63.68;100548.00;5132597;28;19972;-70
2023/05/01 07:38:38;;;;;;;;;;;;;;;12.76;62.93;100548.09;5132971;28;19967;-71
2023/05/01 07:41:41;;;;;;;;;;;;;;;12.82;62.30;100538.16;5132749;28;19969;-70
2023/05/01 07:44:45;;;;;;;;;;;;;;;12.84;62.49;100546.78;5131375;28;20381;-70
2023/05/01 07:47:48;;;;;;;;;;;;;;;12.94;62.53;100534.78;5132299;27;19923;-70
2023/05/01 07:50:52;;;;;;;;;;;;;;;12.91;60.59;100534.97;5135242;27;19923;-72
2023/05/01 07:53:55;;;;;;;;;;;;;;;13.04;60.68;100530.63;5136181;27;19938;-71
2023/05/01 07:56:58;;;;;;;;;;;;;;;13.12;60.37;100527.56;5136777;27;19922;-71
2023/05/01 08:00:02;;;;;;;;;;;;;;;13.25;60.36;100523.25;5134872;27;20389;-71
2023/05/01 08:03:16;;;;;;;;;;;;;;;13.43;59.94;100519.44;5134524;27;19927;-71
2023/05/01 08:06:19;;;;;;;;;;;;;;;13.42;59.73;100519.53;5024278;28;19924;-71
2023/05/01 08:09:22;;;;;;;;;;;;;;;13.11;58.24;100518.81;5018473;28;19985;-72
2023/05/01 08:12:25;;;;;;;;;;;;;;;13.24;58.80;100517.16;5030714;28;19977;-72
2023/05/01 08:15:29;;;;;;;;;;;;;;;13.51;58.94;100515.47;5030738;28;19969;-71
2023/05/01 08:18:32;;;;;;;;;;;;;;;13.65;58.29;100520.66;5019633;28;20363;-71
2023/05/01 08:21:35;;;;;;;;;;;;;;;13.77;57.81;100521.66;5029707;28;19982;-71
2023/05/01 08:24:40;;;;;;;;;;;;;;;13.85;57.20;100514.97;5030159;28;19963;-70
2023/05/01 08:27:44;;;;;;;;;;;;;;;13.82;57.31;100514.31;5032308;28;19924;-69
2023/05/01 08:30:48;;;;;;;;;;;;;;;14.05;57.60;100516.25;5032172;28;19924;-71
2023/05/01 08:33:51;;;;;;;;;;;;;;;14.16;56.83;100508.47;5032203;28;20399;-71
2023/05/01 08:36:54;;;;;;;;;;;;;;;14.23;56.27;100494.91;5032147;28;19924;-72
2023/05/01 08:39:57;;;;;;;;;;;;;;;14.26;55.32;100497.34;5032090;28;19924;-74
2023/05/01 08:43:04;;;;;;;;;;;;;;;14.30;57.14;100491.78;5031940;28;19932;-71
2023/05/01 08:46:08;;;;;;;;;;;;;;;14.39;56.48;100485.91;5055873;27;20414;-72
2023/05/01 08:49:14;;;;;;;;;;;;;;;14.49;56.65;100483.47;5135899;27;19922;-71
2023/05/01 08:52:18;;;;;;;;;;;;;;;14.61;56.38;100484.41;5135727;27;19976;-71
2023/05/01 08:55:22;;;;;;;;;;;;;;;14.58;55.97;100482.88;5070903;27;19928;-71
2023/05/01 08:58:25;;;;;;;;;;;;;;;14.62;56.59;100479.06;5028213;28;20391;-72
2023/05/01 09:01:31;;;;;;;;;;;;;;;14.78;56.72;100475.38;5029623;28;20028;-71
2023/05/01 09:04:40;;;;;;;;;;;;;;;14.90;55.92;100474.50;5028173;28;19924;-71
2023/05/01 09:07:46;;;;;;;;;;;;;;;14.96;54.17;100468.75;5028791;28;19924;-72
2023/05/01 09:10:51;;;;;;;;;;;;;;;14.99;55.21;100473.81;5018595;28;19970;-72
2023/05/01 09:13:55;;;;;;;;;;;;;;;15.17;55.50;100468.19;5029339;28;19924;-72
2023/05/01 09:17:01;;;;;;;;;;;;;;;15.27;55.98;100461.28;5030418;28;20441;-73
2023/05/01 09:20:04;;;;;;;;;;;;;;;15.43;55.11;100464.50;5029906;28;19928;-72
2023/05/01 09:23:08;;;;;;;;;;;;;;;15.57;54.88;100458.19;5030091;28;19927;-72
2023/05/01 09:26:16;;;;;;;;;;;;;;;15.64;55.53;100459.44;5030104;28;19955;-73
2023/05/01 09:29:40;;;;;;;;;;;;;;;15.78;54.38;100458.44;5031377;28;19923;-72
2023/05/01 09:32:43;;;;;;;;;;;;;;;15.68;53.35;100454.81;5030851;28;19924;-71
2023/05/01 09:35:49;;;;;;;;;;;;;;;15.83;53.78;100453.66;5018855;28;19977;-71
2023/05/01 09:38:52;;;;;;;;;;;;;;;15.85;54.46;100446.47;5030335;28;20269;-71
2023/05/01 09:41:55;;;;;;;;;;;;;;;16.00;53.75;100445.31;5016482;28;19928;-71
2023/05/01 09:45:02;;;;;;;;;;;;;;;16.09;53.49;100443.78;5017251;28;19928;-71
2023/05/01 09:48:09;;;;;;;;;;;;;;;16.20;53.40;100440.28;5030099;28;20352;-71
2023/05/01 09:51:35;;;;;;;;;;;;;;;16.36;53.54;100438.13;5028664;28;19927;-72
2023/05/01 09:54:39;;;;;;;;;;;;;;;16.51;53.25;100433.47;5029239;28;19928;-72
2023/05/01 09:57:44;;;;;;;;;;;;;;;16.58;52.31;100429.38;5029651;28;20065;-72
2023/05/01 10:00:50;;;;;;;;;;;;;;;16.65;52.04;100429.75;5010266;28;20025;-72
2023/05/01 10:03:54;;;;;;;;;;;;;;;16.72;51.56;100425.69;4996467;28;19945;-72
2023/05/01 10:07:09;;;;;;;;;;;;;;;16.83;51.28;100422.19;5009121;28;19924;-73
2023/05/01 10:10:20;;;;;;;;;;;;;;;16.82;50.52;100426.66;5008232;28;19943;-73
2023/05/01 10:13:23;;;;;;;;;;;;;;;16.76;49.38;100418.38;5009659;28;20441;-73
2023/05/01 10:16:27;;;;;;;;;;;;;;;16.81;49.95;100422.31;4997974;28;19924;-72
2023/05/01 10:19:31;;;;;;;;;;;;;;;16.78;50.23;100414.63;5008005;28;19966;-73
2023/05/01 10:22:35;;;;;;;;;;;;;;;16.76;49.10;100419.22;5008339;28;20368;-73
2023/05/01 10:25:40;;;;;;;;;;;;;;;16.72;49.44;100413.31;5009053;28;19979;-74
2023/05/01 10:28:45;;;;;;;;;;;;;;;16.68;50.47;100409.22;5009554;28;20003;-72
2023/05/01 10:31:48;;;;;;;;;;;;;;;16.71;50.29;100406.31;5010039;28;19971;-72
2023/05/01 10:34:53;;;;;;;;;;;;;;;16.77;50.54;100402.41;5002391;28;20347;-72
2023/05/01 10:38:11;;;;;;;;;;;;;;;16.84;49.70;100405.38;5007289;28;19925;-74
2023/05/01 10:41:16;;;;;;;;;;;;;;;16.90;49.99;100392.53;5002296;28;20293;-72
2023/05/01 10:44:20;;;;;;;;;;;;;;;17.08;50.25;100394.66;5007605;28;20022;-72
2023/05/01 10:47:24;;;;;;;;;;;;;;;17.26;50.28;100387.88;5010303;28;20297;-73
2023/05/01 10:50:26;;;;;;;;;;;;;;;17.35;48.83;100392.34;5010295;28;19925;-72
2023/05/01 10:53:29;;;;;;;;;;;;;;;17.50;48.82;100390.25;5009525;28;19931;-73
2023/05/01 10:56:33;;;;;;;;;;;;;;;17.59;48.59;100378.91;5010240;28;20008;-73
2023/05/01 10:59:55;;;;;;;;;;;;;;;17.75;49.01;100382.91;5030675;28;19977;-72
2023/05/01 11:03:16;;;;;;;;;;;;;;;17.93;48.36;100380.53;5049472;28;19969;-72
2023/05/01 11:06:19;;;;;;;;;;;;;;;18.02;48.15;100379.75;5049832;28;20449;-72
2023/05/01 11:09:37;;;;;;;;;;;;;;;18.17;47.85;100377.59;5050008;28;19927;-72
2023/05/01 11:12:43;;;;;;;;;;;;;;;18.13;46.46;100377.03;5050050;28;19963;-71
2023/05/01 11:15:46;;;;;;;;;;;;;;;18.17;46.89;100372.31;5049835;28;19924;-72
2023/05/01 11:18:50;;;;;;;;;;;;;;;18.18;46.06;100364.22;5049810;28;20402;-72
2023/05/01 11:21:54;;;;;;;;;;;;;;;18.10;45.50;100366.72;5050565;28;19988;-72
2023/05/01 11:24:58;;;;;;;;;;;;;;;18.04;46.18;100361.94;5053030;28;20287;-72
2023/05/01 11:28:29;;;;;;;;;;;;;;;18.23;47.26;100364.66;5053253;28;19923;-71
2023/05/01 11:31:33;;;;;;;;;;;;;;;18.30;45.80;100363.16;5031232;28;19928;-72
2023/05/01 11:34:39;;;;;;;;;;;;;;;18.35;44.73;100360.97;5039744;28;20007;-71
2023/05/01 11:37:45;;;;;;;;;;;;;;;18.27;43.34;100362.59;5049906;28;19963;-72
2023/05/01 11:40:57;;;;;;;;;;;;;;;18.18;41.95;100360.75;5040491;28;19959;-72
2023/05/01 11:44:00;;;;;;;;;;;;;;;18.00;40.75;100355.25;5052893;28;19923;-72
2023/05/01 11:47:06;;;;;;;;;;;;;;;18.05;41.45;100348.56;5053112;28;20359;-72
2023/05/01 11:50:10;;;;;;;;;;;;;;;18.25;42.08;100353.94;5052675;28;19961;-73
2023/05/01 11:53:17;;;;;;;;;;;;;;;18.37;40.91;100344.94;5052667;28;19924;-72
2023/05/01 11:56:20;;;;;;;;;;;;;;;18.46;40.86;100345.94;5052709;28;20019;-72
2023/05/01 11:59:24;;;;;;;;;;;;;;;18.50;41.48;100342.03;5052477;28;19982;-72
2023/05/01 12:02:28;;;;;;;;;;;;;;;18.49;41.36;100345.66;5052607;28;19928;-72
2023/05/01 12:05:31;;;;;;;;;;;;;;;18.39;42.48;100347.47;5052279;28;19928;-71
2023/05/01 12:08:35;;;;;;;;;;;;;;;18.20;40.91;100351.69;5052798;28;19924;-71
2023/05/01 12:11:38;;;;;;;;;;;;;;;18.13;42.15;100356.69;5052231;28;19924;-71
2023/05/01 12:14:42;;;;;;;;;;;;;;;18.12;42.37;100357.69;5012731;28;19923;-73
2023/05/01 12:17:47;;;;;;;;;;;;;;;18.08;42.88;100358.06;5012737;28;19971;-72
2023/05/01 12:20:51;;;;;;;;;;;;;;;17.78;41.27;100361.53;5013037;28;19924;-72
2023/05/01 12:23:54;;;;;;;;;;;;;;;17.58;41.66;100365.81;5011748;28;20288;-72
2023/05/01 12:27:02;;;;;;;;;;;;;;;17.60;42.91;100372.66;5012570;28;19924;-73
2023/05/01 12:30:06;;;;;;;;;;;;;;;17.63;43.45;100363.63;5000713;28;19929;-73
2023/05/01 12:33:12;;;;;;;;;;;;;;;17.58;43.91;100357.88;5011506;28;20320;-73
2023/05/01 12:36:15;;;;;;;;;;;;;;;17.52;43.69;100361.06;5012126;28;19924;-73
2023/05/01 12:39:18;;;;;;;;;;;;;;;17.47;44.24;100353.50;5012112;28;19979;-73
2023/05/01 12:42:22;;;;;;;;;;;;;;;17.50;45.08;100363.00;4988733;28;20028;-73
2023/05/01 12:45:25;;;;;;;;;;;;;;;17.54;45.48;100359.13;5026427;28;19923;-72
2023/05/01 12:48:29;;;;;;;;;;;;;;;17.56;45.02;100352.72;5052112;28;19924;-72
2023/05/01 12:51:32;;;;;;;;;;;;;;;17.49;45.12;100353.41;5051741;28;19923;-72
2023/05/01 12:54:39;;;;;;;;;;;;;;;17.57;45.57;100345.63;5051797;28;20341;-72
2023/05/01 12:57:50;;;;;;;;;;;;;;;17.59;45.02;100349.84;5039462;28;19924;-72
2023/05/01 13:00:54;;;;;;;;;;;;;;;17.65;45.01;100356.41;5051428;28;19931;-72
2023/05/01 13:03:57;;;;;;;;;;;;;;;17.68;45.29;100350.88;5031259;28;19981;-72
2023/05/01 13:07:01;;;;;;;;;;;;;;;17.73;46.98;100359.22;5030947;28;19928;-72
2023/05/01 13:10:05;;;;;;;;;;;;;;;17.77;48.68;100355.41;5031261;28;20279;-72
2023/05/01 13:13:08;;;;;;;;;;;;;;;17.71;49.98;100355.91;5030700;28;20319;-71
2023/05/01 13:16:11;;;;;;;;;;;;;;;17.75;48.92;100357.31;5031488;28;19963;-71
2023/05/01 13:19:24;;;;;;;;;;;;;;;17.86;49.62;100354.59;5031102;28;20406;-71
2023/05/01 13:22:31;;;;;;;;;;;;;;;17.99;50.73;100357.03;5014647;27;20290;-71
2023/05/01 13:25:34;;;;;;;;;;;;;;;18.18;51.27;100358.09;5011920;28;20390;-71
2023/05/01 13:28:43;;;;;;;;;;;;;;;18.31;50.68;100354.28;5028417;28;19924;-74
2023/05/01 13:31:47;;;;;;;;;;;;;;;18.48;47.40;100349.28;5030419;28;19923;-73
2023/05/01 13:34:50;;;;;;;;;;;;;;;18.65;45.43;100345.97;5027065;28;19925;-73
2023/05/01 13:37:54;;;;;;;;;;;;;;;18.95;43.78;100336.28;5028764;28;19927;-72
2023/05/01 13:40:57;;;;;;;;;;;;;;;18.94;44.48;100345.22;5020512;28;20331;-72
2023/05/01 13:44:01;;;;;;;;;;;;;;;18.88;44.25;100335.16;5018434;28;19928;-72
2023/05/01 13:47:04;;;;;;;;;;;;;;;18.67;43.37;100337.91;5031070;28;19923;-73
2023/05/01 13:50:17;;;;;;;;;;;;;;;18.34;43.00;100337.25;5031258;28;19924;-73
2023/05/01 13:53:20;;;;;;;;;;;;;;;18.28;44.81;100333.34;5014579;28;19924;-73
2023/05/01 13:56:24;;;;;;;;;;;;;;;18.20;45.42;100341.13;5011622;28;19924;-73
2023/05/01 13:59:32;;;;;;;;;;;;;;;18.11;45.85;100337.47;5011018;28;19962;-72
2023/05/01 14:02:41;;;;;;;;;;;;;;;18.00;44.59;100331.44;5011020;28;19971;-73
2023/05/01 14:05:46;;;;;;;;;;;;;;;17.88;43.70;100331.50;5011015;28;19970;-72
2023/05/01 14:08:50;;;;;;;;;;;;;;;17.73;43.26;100322.22;5011659;28;19962;-73
2023/05/01 14:11:54;;;;;;;;;;;;;;;17.61;43.42;100333.81;5011317;28;20383;-75
2023/05/01 14:15:01;;;;;;;;;;;;;;;17.53;43.79;100341.59;5012032;28;19978;-74
2023/05/01 14:18:06;;;;;;;;;;;;;;;17.52;43.76;100324.06;5010459;28;19924;-73
2023/05/01 14:21:10;;;;;;;;;;;;;;;17.55;44.67;100326.41;5017547;28;20015;-73
2023/05/01 14:24:15;;;;;;;;;;;;;;;17.51;43.49;100327.66;5030347;28;19966;-73
2023/05/01 14:27:19;;;;;;;;;;;;;;;17.32;44.11;100334.47;5014515;28;19924;-73
2023/05/01 14:30:26;;;;;;;;;;;;;;;17.21;44.67;100337.19;5010042;28;19926;-73
2023/05/01 14:33:30;;;;;;;;;;;;;;;17.14;45.36;100336.03;5009848;28;20032;-73
2023/05/01 14:36:33;;;;;;;;;;;;;;;17.05;46.11;100331.50;5010277;28;19974;-72
2023/05/01 14:39:37;;;;;;;;;;;;;;;16.74;49.21;100357.72;5009444;28;20388;-73
2023/05/01 14:42:42;;;;;;;;;;;;;;;16.48;47.10;100344.81;5010539;28;20029;-73
2023/05/01 14:45:45;;;;;;;;;;;;;;;16.45;49.93;100349.50;5010521;28;19970;-73
2023/05/01 14:48:49;;;;;;;;;;;;;;;16.42;52.90;100345.31;5019612;28;19924;-73
2023/05/01 14:51:53;;;;;;;;;;;;;;;16.32;57.17;100357.56;5029870;28;20008;-72
2023/05/01 14:54:56;;;;;;;;;;;;;;;16.24;59.75;100355.53;5030123;28;19924;-73
2023/05/01 14:58:02;;;;;;;;;;;;;;;16.16;61.11;100357.91;5032697;28;19959;-73
2023/05/01 15:01:05;;;;;;;;;;;;;;;16.14;61.80;100357.19;5023873;28;20018;-73
2023/05/01 15:04:09;;;;;;;;;;;;;;;16.20;61.69;100361.16;5013815;28;19944;-73
2023/05/01 15:07:12;;;;;;;;;;;;;;;16.21;62.99;100365.50;5013874;28;19928;-73
2023/05/01 15:10:15;;;;;;;;;;;;;;;16.03;65.80;100365.94;5013754;28;19925;-73
2023/05/01 15:13:20;;;;;;;;;;;;;;;15.81;68.98;100365.94;5012500;28;19925;-74
2023/05/01 15:16:24;;;;;;;;;;;;;;;15.73;70.34;100363.03;5021559;28;20084;-74
2023/05/01 15:19:31;;;;;;;;;;;;;;;15.73;68.49;100360.38;5012452;28;19925;-74
2023/05/01 15:26:27;;;;;;;;;;;;;;;15.84;70.44;100370.97;5013307;28;19929;-74
2023/05/01 15:29:30;;;;;;;;;;;;;;;15.73;70.79;100374.44;5013765;28;19925;-74
2023/05/01 15:32:33;;;;;;;;;;;;;;;15.83;71.70;100371.94;5013373;28;19928;-73
2023/05/01 15:35:36;;;;;;;;;;;;;;;15.89;71.00;100373.22;5013593;28;19925;-73
2023/05/01 15:38:38;;;;;;;;;;;;;;;15.90;71.15;100367.84;5029546;28;20296;-73
2023/05/01 15:41:42;;;;;;;;;;;;;;;15.97;71.55;100376.13;5041157;28;19924;-73
2023/05/01 15:44:46;;;;;;;;;;;;;;;15.95;71.47;100373.63;5042073;28;19928;-73
2023/05/01 15:47:49;;;;;;;;;;;;;;;15.95;72.25;100378.03;5030542;28;19973;-73
2023/05/01 15:50:52;;;;;;;;;;;;;;;15.93;72.02;100374.69;5043138;28;20038;-73
2023/05/01 15:53:55;;;;;;;;;;;;;;;15.86;73.01;100379.59;5032859;28;20436;-73
2023/05/01 15:57:01;;;;;;;;;;;;;;;15.85;72.63;100375.28;5032335;28;20352;-73
2023/05/01 16:00:05;;;;;;;;;;;;;;;15.85;71.89;100371.81;5026421;28;20284;-73